Time;durP1;ratioP1;P1;durP2;ratioP2;P2;SDS_P1;SDS_P2;PMS_P1;PMS_P2;Temp;Humidity;BMP_temperature;BMP_pressure;BME280_temperature;BME280_humidity;BME280_pressure;Samples;Min_cycle;Max_cycle;Signal;HPM_P1;HPM_P2
2022/05/06 00:02:12;;;;;;;6.20;3.30;;;;;;;;;;4918815;29;20036;-77
2022/05/06 00:04:38;;;;;;;6.63;4.10;;;;;;;;;;4934555;29;20028;-76
2022/05/06 00:07:04;;;;;;;8.05;3.38;;;;;;;;;;4948251;29;20032;-76
2022/05/06 00:09:29;;;;;;;7.45;3.42;;;;;;;;;;4925938;29;20032;-77
2022/05/06 00:11:55;;;;;;;6.38;2.60;;;;;;;;;;4919032;29;20116;-76
2022/05/06 00:14:20;;;;;;;7.78;3.45;;;;;;;;;;4935552;29;20380;-78
2022/05/06 00:16:46;;;;;;;6.65;3.50;;;;;;;;;;4934862;29;20051;-76
2022/05/06 00:19:12;;;;;;;13.35;3.47;;;;;;;;;;4935580;29;20514;-77
2022/05/06 00:21:38;;;;;;;7.70;3.25;;;;;;;;;;4935733;29;20032;-76
2022/05/06 00:24:04;;;;;;;8.20;3.30;;;;;;;;;;4915811;29;20023;-77
2022/05/06 00:26:30;;;;;;;7.93;3.90;;;;;;;;;;4935777;29;20479;-77
2022/05/06 00:28:55;;;;;;;6.55;2.97;;;;;;;;;;4934373;29;20095;-75
2022/05/06 00:31:21;;;;;;;6.25;2.80;;;;;;;;;;4950670;29;20088;-75
2022/05/06 00:33:48;;;;;;;7.45;3.00;;;;;;;;;;4935099;29;20229;-74
2022/05/06 00:36:14;;;;;;;7.25;3.15;;;;;;;;;;4950031;29;20028;-76
2022/05/06 00:38:42;;;;;;;7.28;3.10;;;;;;;;;;4932045;29;20039;-76
2022/05/06 00:41:07;;;;;;;5.40;2.65;;;;;;;;;;4927160;29;20035;-77
2022/05/06 00:43:33;;;;;;;6.28;2.33;;;;;;;;;;4917130;29;20540;-76
2022/05/06 00:45:58;;;;;;;6.35;2.25;;;;;;;;;;4916091;29;20031;-76
2022/05/06 00:48:30;;;;;;;4.75;2.38;;;;;;;;;;4916121;29;20032;-76
2022/05/06 00:50:57;;;;;;;6.00;2.38;;;;;;;;;;4915499;29;20055;-77
2022/05/06 00:53:22;;;;;;;5.80;2.25;;;;;;;;;;4930500;29;20095;-74
2022/05/06 00:55:49;;;;;;;6.65;2.70;;;;;;;;;;4934059;29;20103;-77
2022/05/06 00:58:15;;;;;;;5.05;2.47;;;;;;;;;;4930752;29;20031;-77
2022/05/06 01:00:40;;;;;;;6.07;2.70;;;;;;;;;;4914642;29;20518;-76
2022/05/06 01:03:06;;;;;;;5.30;2.70;;;;;;;;;;4930485;29;20111;-75
2022/05/06 01:05:32;;;;;;;5.93;2.55;;;;;;;;;;4930523;29;20036;-76
2022/05/06 01:07:58;;;;;;;5.35;2.40;;;;;;;;;;4914763;29;20062;-77
2022/05/06 01:10:24;;;;;;;6.75;2.92;;;;;;;;;;4930403;29;20536;-76
2022/05/06 01:12:50;;;;;;;7.82;2.65;;;;;;;;;;4933275;29;20499;-76
2022/05/06 01:15:20;;;;;;;5.50;2.40;;;;;;;;;;4927509;29;20087;-76
2022/05/06 01:17:48;;;;;;;6.38;2.20;;;;;;;;;;4949377;29;20074;-76
2022/05/06 01:20:17;;;;;;;4.47;2.60;;;;;;;;;;4949500;29;20503;-77
2022/05/06 01:22:44;;;;;;;4.53;2.05;;;;;;;;;;4932807;29;20051;-76
2022/05/06 01:25:09;;;;;;;4.57;2.30;;;;;;;;;;4933476;29;20114;-77
2022/05/06 01:27:36;;;;;;;4.93;2.53;;;;;;;;;;4949527;29;20107;-76
2022/05/06 01:30:04;;;;;;;4.25;2.30;;;;;;;;;;4924373;29;20087;-76
2022/05/06 01:32:30;;;;;;;6.70;2.55;;;;;;;;;;4915917;29;20045;-76
2022/05/06 01:34:57;;;;;;;5.03;2.25;;;;;;;;;;4933309;29;20040;-76
2022/05/06 01:37:23;;;;;;;6.10;2.47;;;;;;;;;;4949820;29;20439;-77
2022/05/06 01:39:52;;;;;;;4.80;2.70;;;;;;;;;;4949485;29;20040;-76
2022/05/06 01:42:20;;;;;;;9.82;2.60;;;;;;;;;;4949207;29;20066;-77
2022/05/06 01:44:51;;;;;;;6.57;2.85;;;;;;;;;;4942996;29;20023;-75
2022/05/06 01:47:19;;;;;;;4.82;2.40;;;;;;;;;;4925797;29;20500;-77
2022/05/06 01:49:46;;;;;;;11.17;2.47;;;;;;;;;;4931375;29;20104;-77
2022/05/06 01:52:15;;;;;;;5.20;2.28;;;;;;;;;;4902659;29;20115;-76
2022/05/06 01:54:40;;;;;;;6.80;2.30;;;;;;;;;;4918963;29;20512;-77
2022/05/06 01:57:06;;;;;;;5.15;2.55;;;;;;;;;;4918127;29;20043;-76
2022/05/06 01:59:33;;;;;;;5.70;2.63;;;;;;;;;;4902782;29;20072;-76
2022/05/06 02:02:11;;;;;;;7.67;2.70;;;;;;;;;;4942399;29;20035;-76
2022/05/06 02:07:22;;;;;;;5.97;2.72;;;;;;;;;;4952836;29;20032;-76
2022/05/06 02:09:47;;;;;;;7.32;2.70;;;;;;;;;;4936778;29;20035;-75
2022/05/06 02:12:17;;;;;;;6.05;3.17;;;;;;;;;;4952997;29;20511;-76
2022/05/06 02:15:13;;;;;;;7.63;2.40;;;;;;;;;;4928814;29;20044;-76
2022/05/06 02:18:09;;;;;;;5.65;2.83;;;;;;;;;;4935512;29;20036;-76
2022/05/06 02:21:13;;;;;;;6.45;2.83;;;;;;;;;;4926011;29;20043;-76
2022/05/06 02:23:49;;;;;;;6.35;2.70;;;;;;;;;;4922219;29;20075;-76
2022/05/06 02:26:31;;;;;;;5.43;2.90;;;;;;;;;;4952561;29;20082;-77
2022/05/06 02:29:02;;;;;;;8.25;2.92;;;;;;;;;;4952493;29;20054;-76
2022/05/06 02:34:16;;;;;;;10.85;3.00;;;;;;;;;;4951059;29;20030;-75
2022/05/06 02:36:45;;;;;;;6.28;3.40;;;;;;;;;;4944377;29;20083;-76
2022/05/06 02:39:18;;;;;;;5.88;3.05;;;;;;;;;;4937604;29;20063;-73
2022/05/06 02:41:45;;;;;;;8.55;4.80;;;;;;;;;;4952185;29;20319;-76
2022/05/06 02:44:13;;;;;;;6.15;2.83;;;;;;;;;;4951887;29;20115;-75
2022/05/06 02:46:41;;;;;;;8.27;3.63;;;;;;;;;;4952360;29;20064;-75
2022/05/06 02:49:07;;;;;;;10.32;3.90;;;;;;;;;;4936063;29;20265;-76
2022/05/06 02:51:33;;;;;;;7.95;3.13;;;;;;;;;;4940930;29;20392;-76
2022/05/06 02:54:01;;;;;;;8.75;3.35;;;;;;;;;;4940575;29;20036;-76
2022/05/06 02:56:31;;;;;;;8.98;3.22;;;;;;;;;;4935800;29;20083;-77
2022/05/06 02:59:00;;;;;;;7.15;3.83;;;;;;;;;;4935818;29;20524;-77
2022/05/06 03:01:29;;;;;;;7.28;3.05;;;;;;;;;;4934913;29;20055;-77
2022/05/06 03:03:58;;;;;;;7.07;3.08;;;;;;;;;;4935577;29;20062;-76
2022/05/06 03:06:23;;;;;;;7.20;3.15;;;;;;;;;;4951671;29;20486;-77
2022/05/06 03:08:51;;;;;;;11.82;3.35;;;;;;;;;;4950521;29;20028;-77
2022/05/06 03:11:21;;;;;;;8.43;3.35;;;;;;;;;;4927093;29;20035;-77
2022/05/06 03:13:55;;;;;;;8.05;3.33;;;;;;;;;;4916228;29;20403;-77
2022/05/06 03:16:25;;;;;;;12.57;3.75;;;;;;;;;;4932562;29;20055;-77
2022/05/06 03:18:50;;;;;;;5.68;2.92;;;;;;;;;;4917646;29;20028;-76
2022/05/06 03:21:17;;;;;;;7.30;3.13;;;;;;;;;;4932402;29;20036;-75
2022/05/06 03:23:43;;;;;;;8.20;3.15;;;;;;;;;;4931850;29;20028;-77
2022/05/06 03:26:11;;;;;;;6.50;3.28;;;;;;;;;;4923562;29;20027;-76
2022/05/06 03:28:37;;;;;;;8.02;3.83;;;;;;;;;;4933290;29;20028;-77
2022/05/06 03:31:03;;;;;;;8.77;3.50;;;;;;;;;;4900932;29;20547;-76
2022/05/06 03:33:42;;;;;;;8.40;3.65;;;;;;;;;;4917522;29;20029;-76
2022/05/06 03:36:24;;;;;;;9.05;3.60;;;;;;;;;;4932493;29;20054;-74
2022/05/06 03:39:04;;;;;;;9.13;3.83;;;;;;;;;;4918349;29;20032;-77
2022/05/06 03:41:35;;;;;;;12.57;4.80;;;;;;;;;;4919361;29;20036;-77
2022/05/06 03:44:02;;;;;;;7.95;4.30;;;;;;;;;;4945544;29;20035;-75
2022/05/06 03:46:27;;;;;;;10.90;4.18;;;;;;;;;;4929234;29;20054;-77
2022/05/06 03:48:53;;;;;;;10.02;3.75;;;;;;;;;;4940740;29;20255;-74
2022/05/06 03:51:21;;;;;;;6.43;3.78;;;;;;;;;;4924498;29;20032;-75
2022/05/06 03:53:54;;;;;;;7.70;3.40;;;;;;;;;;4924793;29;20040;-76
2022/05/06 03:56:24;;;;;;;7.95;3.80;;;;;;;;;;4908842;29;20217;-77
2022/05/06 03:58:51;;;;;;;6.78;3.80;;;;;;;;;;4945547;29;20019;-76
2022/05/06 04:01:19;;;;;;;10.65;4.95;;;;;;;;;;4950917;29;20032;-77
2022/05/06 04:03:48;;;;;;;11.30;4.15;;;;;;;;;;4952997;29;20040;-77
2022/05/06 04:06:15;;;;;;;10.05;4.30;;;;;;;;;;4952169;29;20059;-77
2022/05/06 04:08:44;;;;;;;;;;;;;;;;;;4922788;29;20039;-78
2022/05/06 04:11:10;;;;;;;6.57;3.50;;;;;;;;;;4919437;29;19910;-77
2022/05/06 04:13:36;;;;;;;10.73;3.55;;;;;;;;;;4915269;29;20032;-78
2022/05/06 04:16:02;;;;;;;22.02;6.05;;;;;;;;;;4918514;29;20036;-76
2022/05/06 04:18:28;;;;;;;15.27;6.13;;;;;;;;;;4962067;29;20103;-75
2022/05/06 04:23:39;;;;;;;7.72;3.72;;;;;;;;;;4953182;29;20024;-75
2022/05/06 04:26:13;;;;;;;7.25;3.78;;;;;;;;;;4921001;29;20039;-78
2022/05/06 04:28:46;;;;;;;9.55;3.63;;;;;;;;;;4934581;29;20036;-77
2022/05/06 04:31:12;;;;;;;14.48;7.22;;;;;;;;;;4930694;29;20433;-77
2022/05/06 04:33:41;;;;;;;17.85;7.70;;;;;;;;;;4915525;29;20040;-78
2022/05/06 04:36:11;;;;;;;11.80;5.22;;;;;;;;;;4931201;29;20028;-78
2022/05/06 04:38:39;;;;;;;13.23;4.95;;;;;;;;;;4899899;29;20087;-77
2022/05/06 04:41:06;;;;;;;8.80;4.18;;;;;;;;;;4931347;29;20339;-77
2022/05/06 04:43:34;;;;;;;9.48;3.65;;;;;;;;;;4915070;29;20029;-77
2022/05/06 04:46:00;;;;;;;10.57;3.88;;;;;;;;;;4931283;29;20140;-75
2022/05/06 04:48:29;;;;;;;9.27;3.28;;;;;;;;;;4942540;29;20044;-78
2022/05/06 04:50:56;;;;;;;8.75;2.95;;;;;;;;;;4950143;29;20086;-77
2022/05/06 04:53:25;;;;;;;8.90;3.92;;;;;;;;;;4933693;29;20138;-78
2022/05/06 04:55:52;;;;;;;6.07;3.30;;;;;;;;;;4933937;29;20175;-77
2022/05/06 04:58:28;;;;;;;6.90;3.58;;;;;;;;;;4934911;29;20032;-77
2022/05/06 05:00:54;;;;;;;8.10;3.78;;;;;;;;;;4933988;29;20036;-77
2022/05/06 05:03:21;;;;;;;13.45;4.00;;;;;;;;;;4945537;29;20034;-77
2022/05/06 05:05:48;;;;;;;9.90;4.28;;;;;;;;;;4914048;29;20032;-75
2022/05/06 05:08:14;;;;;;;9.18;3.83;;;;;;;;;;4930565;29;20032;-78
2022/05/06 05:10:45;;;;;;;5.93;3.25;;;;;;;;;;4930702;29;20083;-77
2022/05/06 05:13:11;;;;;;;11.40;3.88;;;;;;;;;;4899490;29;20028;-78
2022/05/06 05:15:36;;;;;;;8.88;4.07;;;;;;;;;;4931098;29;20036;-77
2022/05/06 05:18:03;;;;;;;10.43;3.83;;;;;;;;;;4929959;29;20028;-77
2022/05/06 05:20:29;;;;;;;7.65;4.10;;;;;;;;;;4915181;29;20038;-76
2022/05/06 05:22:56;;;;;;;12.27;4.15;;;;;;;;;;4921480;29;20036;-76
2022/05/06 05:25:22;;;;;;;10.55;3.92;;;;;;;;;;4929881;29;20453;-78
2022/05/06 05:27:48;;;;;;;7.43;3.45;;;;;;;;;;4930072;29;20111;-77
2022/05/06 05:30:24;;;;;;;13.50;4.00;;;;;;;;;;4930075;29;20064;-77
2022/05/06 05:32:49;;;;;;;13.27;5.18;;;;;;;;;;4929764;29;20066;-78
2022/05/06 05:35:15;;;;;;;11.25;6.57;;;;;;;;;;4913320;29;20055;-77
2022/05/06 05:37:50;;;;;;;14.43;4.78;;;;;;;;;;4941418;29;20034;-79
2022/05/06 05:40:16;;;;;;;18.33;4.65;;;;;;;;;;4949490;29;20027;-77
2022/05/06 05:42:41;;;;;;;11.80;4.05;;;;;;;;;;4933416;29;20040;-78
2022/05/06 05:50:43;;;;;;;9.43;3.80;;;;;;;;;;4945305;29;20047;-75
2022/05/06 05:53:10;;;;;;;7.00;4.25;;;;;;;;;;4913970;29;20031;-76
2022/05/06 05:55:36;;;;;;;11.35;4.53;;;;;;;;;;4930335;29;20051;-76
2022/05/06 05:58:07;;;;;;;14.45;4.93;;;;;;;;;;4914930;29;20036;-76
2022/05/06 06:00:36;;;;;;;7.03;3.92;;;;;;;;;;4914343;29;20087;-77
2022/05/06 06:03:03;;;;;;;13.30;4.97;;;;;;;;;;4899010;29;20063;-77
2022/05/06 06:05:32;;;;;;;10.07;4.57;;;;;;;;;;4914547;29;20028;-75
2022/05/06 06:07:59;;;;;;;10.45;4.82;;;;;;;;;;4882740;29;20037;-77
2022/05/06 06:10:25;;;;;;;8.75;3.88;;;;;;;;;;4936232;29;20059;-76
2022/05/06 06:12:51;;;;;;;13.18;4.85;;;;;;;;;;4948754;29;20465;-77
2022/05/06 06:15:17;;;;;;;9.20;4.30;;;;;;;;;;4932921;29;20523;-76
2022/05/06 06:17:44;;;;;;;11.75;4.63;;;;;;;;;;4917085;29;20110;-77
2022/05/06 06:20:10;;;;;;;13.88;5.00;;;;;;;;;;4916690;29;20471;-76
2022/05/06 06:22:43;;;;;;;10.35;4.70;;;;;;;;;;4948473;29;20116;-76
2022/05/06 06:25:10;;;;;;;13.93;5.20;;;;;;;;;;4925268;29;20035;-76
2022/05/06 06:27:37;;;;;;;10.27;4.45;;;;;;;;;;4934535;29;20107;-77
2022/05/06 06:30:08;;;;;;;12.15;4.97;;;;;;;;;;4933493;29;20518;-76
2022/05/06 06:33:06;;;;;;;18.02;5.45;;;;;;;;;;4919187;29;20032;-77
2022/05/06 06:35:35;;;;;;;12.00;5.18;;;;;;;;;;4917674;29;20047;-78
2022/05/06 06:38:06;;;;;;;11.05;6.05;;;;;;;;;;4937438;29;20046;-77
2022/05/06 06:40:35;;;;;;;11.55;4.38;;;;;;;;;;4920835;29;20027;-77
2022/05/06 06:43:04;;;;;;;10.23;4.65;;;;;;;;;;4934991;29;20038;-78
2022/05/06 06:45:45;;;;;;;12.95;4.93;;;;;;;;;;4935459;29;20066;-77
2022/05/06 06:48:39;;;;;;;12.38;5.00;;;;;;;;;;4937281;29;20488;-77
2022/05/06 06:51:21;;;;;;;8.18;4.78;;;;;;;;;;4953231;29;20055;-77
2022/05/06 06:53:53;;;;;;;12.32;4.97;;;;;;;;;;4956300;29;20036;-77
2022/05/06 06:56:20;;;;;;;13.77;4.90;;;;;;;;;;4936643;29;20431;-76
2022/05/06 06:58:45;;;;;;;9.52;5.03;;;;;;;;;;4920053;29;20099;-76
2022/05/06 07:01:11;;;;;;;13.40;6.07;;;;;;;;;;4926387;29;20035;-76
2022/05/06 07:03:36;;;;;;;14.85;5.93;;;;;;;;;;4931724;29;20024;-76
2022/05/06 07:14:15;;;;;;;13.10;5.38;;;;;;;;;;4916055;29;20032;-78
2022/05/06 07:16:40;;;;;;;12.95;5.38;;;;;;;;;;4931820;29;20460;-76
2022/05/06 07:19:06;;;;;;;14.18;5.93;;;;;;;;;;4922152;29;20043;-76
2022/05/06 07:21:31;;;;;;;10.85;5.03;;;;;;;;;;4935281;29;20403;-77
2022/05/06 07:23:57;;;;;;;12.77;5.90;;;;;;;;;;4935968;29;20042;-76
2022/05/06 07:26:23;;;;;;;18.88;6.95;;;;;;;;;;4919336;29;20558;-77
2022/05/06 07:28:48;;;;;;;13.20;4.88;;;;;;;;;;4919967;29;20666;-76
2022/05/06 07:31:14;;;;;;;13.27;5.40;;;;;;;;;;4919196;29;20047;-77
2022/05/06 07:33:40;;;;;;;11.80;5.70;;;;;;;;;;4932688;29;20387;-77
2022/05/06 07:36:06;;;;;;;14.38;4.40;;;;;;;;;;4925271;29;20496;-77
2022/05/06 07:38:32;;;;;;;13.00;4.72;;;;;;;;;;4934346;29;20199;-77
2022/05/06 07:40:59;;;;;;;7.30;3.78;;;;;;;;;;4950838;29;20031;-77
2022/05/06 07:43:25;;;;;;;11.85;4.90;;;;;;;;;;4919006;29;20042;-76
2022/05/06 07:45:51;;;;;;;13.27;4.72;;;;;;;;;;4934986;29;20101;-76
2022/05/06 07:48:18;;;;;;;13.18;4.72;;;;;;;;;;4950430;28;20527;-77
2022/05/06 07:50:46;;;;;;;12.70;3.70;;;;;;;;;;4933560;29;20050;-77
2022/05/06 07:53:12;;;;;;;7.43;3.50;;;;;;;;;;4927645;29;20491;-76
2022/05/06 07:55:38;;;;;;;6.47;3.30;;;;;;;;;;4936061;29;20028;-77
2022/05/06 07:58:04;;;;;;;9.10;3.50;;;;;;;;;;4936499;29;20398;-77
2022/05/06 08:00:30;;;;;;;6.35;3.42;;;;;;;;;;4936155;29;20087;-76
2022/05/06 08:05:40;;;;;;;5.97;3.10;;;;;;;;;;4934505;29;20070;-77
2022/05/06 08:08:05;;;;;;;9.70;3.38;;;;;;;;;;4930443;29;20059;-76
2022/05/06 08:10:31;;;;;;;6.85;3.08;;;;;;;;;;4928005;29;20107;-76
2022/05/06 08:12:57;;;;;;;7.78;3.80;;;;;;;;;;4949897;29;20046;-76
2022/05/06 08:15:23;;;;;;;5.75;2.95;;;;;;;;;;4935728;29;20063;-75
2022/05/06 08:17:49;;;;;;;9.07;3.97;;;;;;;;;;4934147;29;20042;-77
2022/05/06 08:20:15;;;;;;;8.80;3.10;;;;;;;;;;4933987;29;20122;-76
2022/05/06 08:22:41;;;;;;;7.45;2.70;;;;;;;;;;4935052;29;20519;-77
2022/05/06 08:25:07;;;;;;;7.38;2.60;;;;;;;;;;4948966;29;20028;-76
2022/05/06 08:27:36;;;;;;;8.73;3.80;;;;;;;;;;4927098;29;20035;-76
2022/05/06 08:30:01;;;;;;;11.43;3.75;;;;;;;;;;4934277;29;20058;-76
2022/05/06 08:32:27;;;;;;;10.35;5.35;;;;;;;;;;4935717;29;20068;-75
2022/05/06 08:34:52;;;;;;;7.07;3.35;;;;;;;;;;4935308;29;20504;-76
2022/05/06 08:37:21;;;;;;;7.47;2.90;;;;;;;;;;4933900;29;20503;-74
2022/05/06 08:39:46;;;;;;;;;;;;;;;;;;4932769;29;20027;-76
2022/05/06 08:42:15;;;;;;;16.65;6.70;;;;;;;;;;4938257;29;20390;-77
2022/05/06 08:52:57;;;;;;;14.27;6.88;;;;;;;;;;4949232;29;20085;-77
2022/05/06 08:55:23;;;;;;;8.98;3.83;;;;;;;;;;4934639;29;20460;-76
2022/05/06 08:57:50;;;;;;;11.00;3.20;;;;;;;;;;4921685;29;20440;-76
2022/05/06 09:00:15;;;;;;;7.30;3.65;;;;;;;;;;4930129;29;20038;-76
2022/05/06 09:02:41;;;;;;;9.88;4.53;;;;;;;;;;4934380;29;20394;-76
2022/05/06 09:05:16;;;;;;;14.68;6.22;;;;;;;;;;4934380;29;20040;-76
2022/05/06 09:07:45;;;;;;;14.95;5.93;;;;;;;;;;4949366;29;20032;-76
2022/05/06 09:10:14;;;;;;;14.10;6.10;;;;;;;;;;4934364;29;20365;-77
2022/05/06 09:12:46;;;;;;;13.30;6.13;;;;;;;;;;4934295;29;20139;-75
2022/05/06 09:17:57;;;;;;;7.35;4.10;;;;;;;;;;4928193;29;20031;-76
2022/05/06 09:20:26;;;;;;;8.73;3.65;;;;;;;;;;4932916;29;20131;-76
2022/05/06 09:22:53;;;;;;;12.07;4.45;;;;;;;;;;4933923;29;20484;-76
2022/05/06 09:25:37;;;;;;;8.73;4.57;;;;;;;;;;4934564;29;20039;-75
2022/05/06 09:28:03;;;;;;;5.80;3.28;;;;;;;;;;4949248;29;20038;-76
2022/05/06 09:30:29;;;;;;;8.38;3.40;;;;;;;;;;4931282;29;20031;-77
2022/05/06 09:32:54;;;;;;;7.95;3.95;;;;;;;;;;4926038;29;20027;-75
2022/05/06 09:35:25;;;;;;;10.40;4.80;;;;;;;;;;4934272;29;20118;-76
2022/05/06 09:37:50;;;;;;;7.90;3.00;;;;;;;;;;4933401;29;20040;-75
2022/05/06 09:40:18;;;;;;;5.60;2.55;;;;;;;;;;4901393;29;20495;-76
2022/05/06 09:42:53;;;;;;;6.05;3.17;;;;;;;;;;4948595;29;20075;-75
2022/05/06 09:45:28;;;;;;;9.32;3.88;;;;;;;;;;4948815;29;20046;-76
2022/05/06 09:48:00;;;;;;;9.32;4.05;;;;;;;;;;4928959;29;20024;-74
2022/05/06 09:50:36;;;;;;;6.22;2.45;;;;;;;;;;4931986;29;20054;-76
2022/05/06 09:53:04;;;;;;;7.70;2.92;;;;;;;;;;4913784;29;20353;-76
2022/05/06 09:55:30;;;;;;;7.93;2.50;;;;;;;;;;4914208;29;20032;-76
2022/05/06 09:57:59;;;;;;;8.68;2.95;;;;;;;;;;4929618;29;20028;-76
2022/05/06 10:00:25;;;;;;;6.53;2.75;;;;;;;;;;4914938;29;20028;-76
2022/05/06 10:02:51;;;;;;;9.48;3.25;;;;;;;;;;4913293;29;20032;-76
2022/05/06 10:05:16;;;;;;;9.45;4.05;;;;;;;;;;4922469;29;20122;-76
2022/05/06 10:07:43;;;;;;;10.20;3.80;;;;;;;;;;4932734;29;20028;-76
2022/05/06 10:10:16;;;;;;;8.70;3.33;;;;;;;;;;4934123;29;20058;-76
2022/05/06 10:12:44;;;;;;;8.70;3.70;;;;;;;;;;4936079;29;20072;-75
2022/05/06 10:15:11;;;;;;;9.77;3.60;;;;;;;;;;4936132;29;20032;-74
2022/05/06 10:17:47;;;;;;;9.65;4.43;;;;;;;;;;4936333;29;20032;-76
2022/05/06 10:20:32;;;;;;;5.70;2.63;;;;;;;;;;4935610;29;20522;-76
2022/05/06 10:23:04;;;;;;;5.88;2.85;;;;;;;;;;4917732;29;20060;-78
2022/05/06 10:25:41;;;;;;;13.77;2.85;;;;;;;;;;4897202;29;20048;-80
2022/05/06 10:34:09;;;;;;;7.50;2.85;;;;;;;;;;4899698;29;20033;-78
2022/05/06 10:36:41;;;;;;;5.18;2.28;;;;;;;;;;4900607;29;20029;-77
2022/05/06 10:39:20;;;;;;;7.97;3.53;;;;;;;;;;4895729;29;20032;-81
2022/05/06 10:42:12;;;;;;;4.78;2.28;;;;;;;;;;4897124;29;20434;-79
2022/05/06 10:44:44;;;;;;;10.27;3.60;;;;;;;;;;4888114;29;20036;-79
2022/05/06 10:47:12;;;;;;;8.25;2.20;;;;;;;;;;4899580;29;20028;-79
2022/05/06 10:49:37;;;;;;;5.72;2.42;;;;;;;;;;4914751;29;20044;-80
2022/05/06 10:52:15;;;;;;;4.47;1.90;;;;;;;;;;4899950;29;20416;-80
2022/05/06 10:54:52;;;;;;;5.47;2.25;;;;;;;;;;4900024;29;20510;-80
2022/05/06 10:57:21;;;;;;;10.77;4.20;;;;;;;;;;4915122;29;20063;-80
2022/05/06 10:59:48;;;;;;;4.95;2.05;;;;;;;;;;4884860;29;20047;-79
2022/05/06 11:02:13;;;;;;;6.55;2.10;;;;;;;;;;4901501;29;20033;-79
2022/05/06 11:04:43;;;;;;;8.13;1.95;;;;;;;;;;4899184;29;20029;-78
2022/05/06 11:07:08;;;;;;;;;;;;;;;;;;4914188;29;20025;-80
2022/05/06 11:09:34;;;;;;;4.65;1.80;;;;;;;;;;4899034;29;19911;-79
2022/05/06 11:12:00;;;;;;;5.95;2.22;;;;;;;;;;4899187;29;20033;-81
2022/05/06 11:14:27;;;;;;;7.80;3.00;;;;;;;;;;4899741;29;20040;-78
2022/05/06 11:16:53;;;;;;;4.00;1.50;;;;;;;;;;4899284;29;20040;-80
2022/05/06 11:19:34;;;;;;;4.97;1.92;;;;;;;;;;4900102;29;20437;-80
2022/05/06 11:22:06;;;;;;;4.72;1.77;;;;;;;;;;4899003;29;20032;-79
2022/05/06 11:24:32;;;;;;;6.32;2.85;;;;;;;;;;4918531;29;20532;-79
2022/05/06 11:27:13;;;;;;;5.35;1.77;;;;;;;;;;4905204;29;20027;-79
2022/05/06 11:29:49;;;;;;;5.82;1.90;;;;;;;;;;4902447;29;20045;-79
2022/05/06 11:32:17;;;;;;;3.38;1.45;;;;;;;;;;4902160;29;20507;-79
2022/05/06 11:34:47;;;;;;;4.30;1.92;;;;;;;;;;4899315;29;20131;-79
2022/05/06 11:37:20;;;;;;;7.38;2.25;;;;;;;;;;4903002;29;20044;-80
2022/05/06 11:39:46;;;;;;;6.50;1.95;;;;;;;;;;4914472;29;20033;-80
2022/05/06 11:42:24;;;;;;;6.53;1.92;;;;;;;;;;4900610;29;20032;-79
2022/05/06 11:47:43;;;;;;;5.68;2.00;;;;;;;;;;4914706;29;20036;-79
2022/05/06 11:50:09;;;;;;;6.55;2.88;;;;;;;;;;4897493;29;20424;-79
2022/05/06 11:52:36;;;;;;;4.97;2.70;;;;;;;;;;4897337;29;20033;-79
2022/05/06 11:55:01;;;;;;;4.57;1.58;;;;;;;;;;4898996;29;20105;-79
2022/05/06 11:57:27;;;;;;;6.28;1.63;;;;;;;;;;4898495;29;20040;-78
2022/05/06 11:59:53;;;;;;;6.80;2.78;;;;;;;;;;4914085;29;20033;-79
2022/05/06 12:02:18;;;;;;;6.68;2.50;;;;;;;;;;4898984;29;20095;-80
2022/05/06 12:04:44;;;;;;;4.82;2.00;;;;;;;;;;4897546;29;20032;-81
2022/05/06 12:07:10;;;;;;;4.63;1.80;;;;;;;;;;4898391;29;20028;-79
2022/05/06 12:09:43;;;;;;;5.00;1.90;;;;;;;;;;4913241;29;20032;-80
2022/05/06 12:12:09;;;;;;;4.55;1.83;;;;;;;;;;4897298;29;20035;-80
2022/05/06 12:14:35;;;;;;;5.97;1.92;;;;;;;;;;4896749;29;20036;-79
2022/05/06 12:17:01;;;;;;;5.82;2.00;;;;;;;;;;4897176;29;20032;-78
2022/05/06 12:19:37;;;;;;;3.60;1.60;;;;;;;;;;4897973;29;20036;-79
2022/05/06 12:22:07;;;;;;;6.57;1.65;;;;;;;;;;4897009;29;20060;-80
2022/05/06 12:24:50;;;;;;;8.13;2.88;;;;;;;;;;4896452;29;20092;-78
2022/05/06 12:27:26;;;;;;;5.78;2.10;;;;;;;;;;4898173;29;20033;-78
2022/05/06 12:29:52;;;;;;;3.80;1.80;;;;;;;;;;4898042;29;20037;-80
2022/05/06 12:32:18;;;;;;;5.15;1.83;;;;;;;;;;4896036;29;20416;-78
2022/05/06 12:34:43;;;;;;;6.43;2.88;;;;;;;;;;4911503;29;20036;-78
2022/05/06 12:37:10;;;;;;;6.05;1.92;;;;;;;;;;4897693;29;20393;-79
2022/05/06 12:39:40;;;;;;;6.18;4.28;;;;;;;;;;4896812;29;20036;-79
2022/05/06 12:42:16;;;;;;;4.18;1.35;;;;;;;;;;4899089;29;20072;-80
2022/05/06 12:44:43;;;;;;;6.07;2.58;;;;;;;;;;4882147;29;20112;-81
2022/05/06 12:49:39;;;;;;;6.10;1.60;;;;;;;;;;4897016;29;20031;-80
2022/05/06 12:50:05;;;;;;;5.50;2.35;;;;;;;;;;4896535;29;20096;-79
2022/05/06 12:52:35;;;;;;;4.53;1.60;;;;;;;;;;4881310;29;20024;-78
2022/05/06 12:55:01;;;;;;;6.47;2.60;;;;;;;;;;4896948;29;20123;-78
2022/05/06 12:57:26;;;;;;;3.47;2.00;;;;;;;;;;4900862;29;20056;-79
2022/05/06 12:59:52;;;;;;;4.57;1.67;;;;;;;;;;4899751;29;20037;-80
2022/05/06 13:02:17;;;;;;;6.40;2.30;;;;;;;;;;4914691;29;20100;-79
2022/05/06 13:04:44;;;;;;;5.30;2.00;;;;;;;;;;4897019;29;20059;-79
2022/05/06 13:07:09;;;;;;;5.72;1.70;;;;;;;;;;4911642;29;20033;-79
2022/05/06 13:09:36;;;;;;;7.88;2.08;;;;;;;;;;4898155;29;20461;-79
2022/05/06 13:12:02;;;;;;;3.75;1.42;;;;;;;;;;4901971;29;20041;-79
2022/05/06 13:14:27;;;;;;;4.70;1.48;;;;;;;;;;4916210;29;20154;-79
2022/05/06 13:16:53;;;;;;;6.50;2.40;;;;;;;;;;4914425;29;20085;-79
2022/05/06 13:19:18;;;;;;;4.47;1.40;;;;;;;;;;4913590;29;20033;-80
2022/05/06 13:21:44;;;;;;;5.32;1.50;;;;;;;;;;4897287;29;20028;-80
2022/05/06 13:24:10;;;;;;;3.75;1.48;;;;;;;;;;4899261;29;20528;-79
2022/05/06 13:26:38;;;;;;;4.13;1.67;;;;;;;;;;4899415;29;20040;-80
2022/05/06 13:29:05;;;;;;;5.72;2.75;;;;;;;;;;4919183;29;20043;-81
2022/05/06 13:31:31;;;;;;;3.63;1.33;;;;;;;;;;4904025;29;20047;-78
2022/05/06 13:33:56;;;;;;;4.35;1.83;;;;;;;;;;4900050;29;20064;-80
2022/05/06 13:36:22;;;;;;;6.47;2.60;;;;;;;;;;4899011;29;20037;-79
2022/05/06 13:38:48;;;;;;;5.70;1.13;;;;;;;;;;4899345;29;20108;-79
2022/05/06 13:41:14;;;;;;;3.80;1.85;;;;;;;;;;4912469;29;20033;-78
2022/05/06 13:43:43;;;;;;;5.90;1.90;;;;;;;;;;4902903;29;20036;-78
2022/05/06 13:46:09;;;;;;;2.95;1.25;;;;;;;;;;4916727;29;20040;-79
2022/05/06 13:48:36;;;;;;;8.60;3.13;;;;;;;;;;4919185;29;20028;-79
2022/05/06 13:51:05;;;;;;;5.03;2.17;;;;;;;;;;4885851;29;20041;-80
2022/05/06 13:53:31;;;;;;;3.88;2.08;;;;;;;;;;4884420;29;20119;-80
2022/05/06 14:01:25;;;;;;;5.45;2.05;;;;;;;;;;4902456;29;20033;-80
2022/05/06 14:03:50;;;;;;;4.47;2.03;;;;;;;;;;4902566;29;20032;-80
2022/05/06 14:06:16;;;;;;;8.77;2.25;;;;;;;;;;4919532;29;20031;-79
2022/05/06 14:08:42;;;;;;;4.40;1.80;;;;;;;;;;4906703;29;20080;-79
2022/05/06 14:11:08;;;;;;;4.20;1.50;;;;;;;;;;4907965;29;20024;-81
2022/05/06 14:13:33;;;;;;;6.45;1.80;;;;;;;;;;4925245;29;20028;-80
2022/05/06 14:15:59;;;;;;;9.27;4.85;;;;;;;;;;4914479;29;20033;-80
2022/05/06 14:18:25;;;;;;;5.20;1.67;;;;;;;;;;4912836;29;20048;-80
2022/05/06 14:20:51;;;;;;;3.30;1.70;;;;;;;;;;4925730;29;20033;-81
2022/05/06 14:23:17;;;;;;;3.63;1.55;;;;;;;;;;4917169;29;20301;-79
2022/05/06 14:25:44;;;;;;;6.45;2.25;;;;;;;;;;4901717;29;20127;-77
2022/05/06 14:28:10;;;;;;;4.30;1.70;;;;;;;;;;4909618;29;20053;-78
2022/05/06 14:30:35;;;;;;;6.07;1.60;;;;;;;;;;4917158;29;20101;-79
2022/05/06 14:33:01;;;;;;;5.63;2.05;;;;;;;;;;4916445;29;20036;-79
2022/05/06 14:35:27;;;;;;;4.38;1.58;;;;;;;;;;4926324;29;20055;-80
2022/05/06 14:37:57;;;;;;;4.82;1.88;;;;;;;;;;4891643;29;20127;-79
2022/05/06 14:40:23;;;;;;;4.55;1.60;;;;;;;;;;4890455;29;20032;-78
2022/05/06 14:42:48;;;;;;;6.72;2.15;;;;;;;;;;4915110;29;20032;-80
2022/05/06 14:45:14;;;;;;;4.03;1.95;;;;;;;;;;4914701;29;20088;-80
2022/05/06 14:47:39;;;;;;;3.80;1.65;;;;;;;;;;4899064;29;20076;-78
2022/05/06 14:50:06;;;;;;;5.60;2.13;;;;;;;;;;4900629;29;20025;-80
2022/05/06 14:52:33;;;;;;;5.45;2.13;;;;;;;;;;4905149;29;20043;-79
2022/05/06 14:55:01;;;;;;;3.92;1.80;;;;;;;;;;4925267;29;20049;-80
2022/05/06 14:57:27;;;;;;;5.45;2.35;;;;;;;;;;4924812;29;20421;-80
2022/05/06 14:59:53;;;;;;;3.72;1.60;;;;;;;;;;4906730;29;20060;-79
2022/05/06 15:02:18;;;;;;;7.38;2.75;;;;;;;;;;4913712;29;20056;-80
2022/05/06 15:04:44;;;;;;;8.73;3.45;;;;;;;;;;4898058;29;20376;-80
2022/05/06 15:07:11;;;;;;;5.95;2.15;;;;;;;;;;4899200;29;20021;-80
2022/05/06 15:09:36;;;;;;;7.05;2.13;;;;;;;;;;4898333;29;20033;-80
2022/05/06 15:12:03;;;;;;;4.90;2.25;;;;;;;;;;4914223;29;20115;-79
2022/05/06 15:14:31;;;;;;;5.22;1.60;;;;;;;;;;4897448;29;20040;-80
2022/05/06 15:17:01;;;;;;;3.85;1.80;;;;;;;;;;4897957;29;20048;-79
2022/05/06 15:19:27;;;;;;;6.28;2.03;;;;;;;;;;4897780;29;20063;-79
2022/05/06 15:21:53;;;;;;;5.18;1.83;;;;;;;;;;4898651;29;20036;-79
2022/05/06 15:24:21;;;;;;;4.22;2.00;;;;;;;;;;4882108;29;20037;-81
2022/05/06 15:26:47;;;;;;;4.30;1.57;;;;;;;;;;4883803;29;20032;-79
2022/05/06 15:29:12;;;;;;;3.85;2.10;;;;;;;;;;4899401;29;20044;-80
2022/05/06 15:31:38;;;;;;;5.07;1.90;;;;;;;;;;4913629;29;20036;-80
2022/05/06 15:34:04;;;;;;;5.13;1.80;;;;;;;;;;4898023;29;20071;-79
2022/05/06 15:36:29;;;;;;;6.50;1.73;;;;;;;;;;4898787;29;20033;-79
2022/05/06 15:38:55;;;;;;;8.00;2.55;;;;;;;;;;4897528;29;20492;-78